TimeMST,TemperatureF,Dew PointF,Humidity,Sea Level PressureIn,VisibilityMPH,Wind Direction,Wind SpeedMPH,Gust SpeedMPH,PrecipitationIn,Events,Conditions,WindDirDegrees,DateUTC
12:51 AM,64.9,32.0,29,29.90,10.0,ESE,6.9,-,N/A,,Clear,120,2012-11-01 07:51:00
1:51 AM,64.0,32.0,30,29.90,10.0,ESE,8.1,-,N/A,,Clear,110,2012-11-01 08:51:00
2:51 AM,64.0,30.9,29,29.90,10.0,ESE,4.6,-,N/A,,Clear,110,2012-11-01 09:51:00
3:51 AM,62.1,28.0,28,29.90,10.0,East,4.6,-,N/A,,Clear,100,2012-11-01 10:51:00
4:51 AM,62.1,28.9,29,29.91,10.0,ESE,4.6,-,N/A,,Clear,110,2012-11-01 11:51:00
5:51 AM,60.1,28.9,31,29.91,10.0,East,5.8,-,N/A,,Clear,100,2012-11-01 12:51:00
6:51 AM,60.1,27.0,28,29.92,10.0,East,6.9,-,N/A,,Partly Cloudy,100,2012-11-01 13:51:00
7:51 AM,62.1,27.0,26,29.94,10.0,East,6.9,-,N/A,,Partly Cloudy,100,2012-11-01 14:51:00
8:51 AM,68.0,28.9,23,29.94,10.0,ESE,6.9,-,N/A,,Partly Cloudy,110,2012-11-01 15:51:00
9:51 AM,73.9,27.0,18,29.94,10.0,East,8.1,-,N/A,,Partly Cloudy,90,2012-11-01 16:51:00
10:51 AM,78.1,26.1,15,29.94,10.0,Variable,3.5,-,N/A,,Partly Cloudy,0,2012-11-01 17:51:00
11:51 AM,80.1,25.0,13,29.91,10.0,Calm,Calm,-,N/A,,Scattered Clouds,0,2012-11-01 18:51:00
12:51 PM,84.0,25.0,12,29.87,10.0,Calm,Calm,-,N/A,,Partly Cloudy,0,2012-11-01 19:51:00
1:51 PM,87.1,24.1,10,29.84,10.0,Calm,Calm,-,N/A,,Partly Cloudy,0,2012-11-01 20:51:00
2:51 PM,88.0,24.1,10,29.82,10.0,Calm,Calm,-,N/A,,Partly Cloudy,0,2012-11-01 21:51:00
3:51 PM,88.0,23.0,9,29.81,10.0,Calm,Calm,-,N/A,,Partly Cloudy,0,2012-11-01 22:51:00
4:51 PM,87.1,24.1,10,29.80,10.0,West,4.6,-,N/A,,Partly Cloudy,280,2012-11-01 23:51:00
5:51 PM,84.9,26.1,12,29.81,10.0,NNW,4.6,-,N/A,,Partly Cloudy,340,2012-11-02 00:51:00
6:51 PM,82.0,28.0,14,29.81,10.0,SW,4.6,-,N/A,,Clear,230,2012-11-02 01:51:00
7:51 PM,75.9,30.0,19,29.83,10.0,WSW,4.6,-,N/A,,Clear,250,2012-11-02 02:51:00
8:51 PM,75.2,30.2,19,29.86,10.0,WNW,3.5,-,N/A,,Clear,290,2012-11-02 03:51:00
9:51 PM,73.4,30.2,20,29.87,10.0,West,3.5,-,N/A,,Clear,280,2012-11-02 04:51:00
10:51 PM,73.0,34.0,24,29.83,10.0,Calm,Calm,-,N/A,,Partly Cloudy,0,2012-11-02 05:51:00
11:51 PM,68.0,34.0,28,29.84,10.0,ESE,3.5,-,N/A,,Mostly Cloudy,120,2012-11-02 06:51:00